Time;durP1;ratioP1;P1;durP2;ratioP2;P2;SDS_P1;SDS_P2;PMS_P1;PMS_P2;Temp;Humidity;BMP_temperature;BMP_pressure;BME280_temperature;BME280_humidity;BME280_pressure;Samples;Min_cycle;Max_cycle;Signal;HPM_P1;HPM_P2
2022/11/01 00:02:00;;;;;;;199.23;24.80;;;;;;;12.09;100.00;99165.16;4281335;33;20034;-74
2022/11/01 00:04:27;;;;;;;422.15;31.60;;;;;;;12.09;100.00;99164.34;4285753;33;20030;-74
2022/11/01 00:06:53;;;;;;;268.35;24.73;;;;;;;12.05;100.00;99163.25;4270411;33;20455;-75
2022/11/01 00:09:20;;;;;;;384.23;28.23;;;;;;;12.09;100.00;99175.16;4266986;33;20060;-74
2022/11/01 00:11:46;;;;;;;169.15;19.92;;;;;;;12.35;100.00;99174.31;4260756;33;20071;-73
2022/11/01 00:14:15;;;;;;;316.80;24.83;;;;;;;12.24;100.00;99178.00;4261893;33;20062;-73
2022/11/01 00:16:42;;;;;;;360.90;25.73;;;;;;;12.25;100.00;99179.63;4267810;33;20820;-73
2022/11/01 00:19:08;;;;;;;374.62;26.42;;;;;;;12.37;100.00;99184.06;4266098;33;20041;-73
2022/11/01 00:21:35;;;;;;;375.38;27.80;;;;;;;12.39;100.00;99173.78;4264907;33;20048;-73
2022/11/01 00:24:01;;;;;;;284.95;22.80;;;;;;;12.26;100.00;99142.66;4265101;33;20079;-73
2022/11/01 00:26:28;;;;;;;294.27;23.35;;;;;;;12.49;100.00;99173.88;4265961;33;20056;-72
2022/11/01 00:28:54;;;;;;;292.35;22.33;;;;;;;12.62;100.00;99172.59;4277635;33;20061;-73
2022/11/01 00:31:21;;;;;;;379.73;24.85;;;;;;;12.45;100.00;99161.97;4281447;33;20340;-74
2022/11/01 00:33:47;;;;;;;282.60;21.70;;;;;;;12.02;100.00;99121.41;4280862;33;20056;-74
2022/11/01 00:36:14;;;;;;;413.00;25.00;;;;;;;12.18;100.00;99168.22;4289901;33;20033;-74
2022/11/01 00:38:41;;;;;;;454.23;30.98;;;;;;;12.32;100.00;99163.22;4306649;33;20074;-74
2022/11/01 00:41:08;;;;;;;193.00;19.52;;;;;;;12.37;100.00;99159.75;4309053;33;20058;-75
2022/11/01 00:43:35;;;;;;;357.98;19.77;;;;;;;12.11;100.00;99103.66;4301979;33;20063;-76
2022/11/01 00:46:03;;;;;;;259.92;18.95;;;;;;;12.34;100.00;99145.69;4303237;33;20419;-75
2022/11/01 00:48:30;;;;;;;254.52;20.67;;;;;;;12.14;100.00;99149.03;4308943;33;20109;-75
2022/11/01 00:50:56;;;;;;;279.80;22.17;;;;;;;11.81;100.00;99105.00;4308449;33;20200;-76
2022/11/01 00:53:22;;;;;;;254.55;19.40;;;;;;;11.86;100.00;99096.13;4293821;33;20057;-76
2022/11/01 00:55:49;;;;;;;220.60;18.67;;;;;;;12.09;100.00;99142.78;4295152;33;20037;-75
2022/11/01 00:58:16;;;;;;;152.77;16.67;;;;;;;12.04;100.00;99140.03;4291606;33;20092;-75
2022/11/01 01:00:42;;;;;;;274.98;28.48;;;;;;;12.06;100.00;99102.78;4295260;33;20059;-75
2022/11/01 01:03:09;;;;;;;238.68;25.40;;;;;;;12.28;100.00;99130.50;4294177;33;20037;-75
2022/11/01 01:05:35;;;;;;;173.05;19.27;;;;;;;12.37;100.00;99140.84;4293691;33;20109;-75
2022/11/01 01:08:02;;;;;;;182.88;19.83;;;;;;;12.26;100.00;99143.47;4292723;33;20360;-74
2022/11/01 01:10:28;;;;;;;85.03;14.82;;;;;;;12.09;100.00;99115.78;4274897;33;20079;-75
2022/11/01 01:12:55;;;;;;;65.70;15.50;;;;;;;12.28;100.00;99130.50;4279615;33;20068;-75
2022/11/01 01:15:21;;;;;;;81.18;16.87;;;;;;;12.16;100.00;99094.81;4294051;33;20045;-74
2022/11/01 01:17:47;;;;;;;65.50;14.68;;;;;;;12.08;100.00;99109.56;4294986;33;20041;-74
2022/11/01 01:20:14;;;;;;;85.15;16.17;;;;;;;11.65;100.00;99062.78;4280108;33;20404;-74
2022/11/01 01:22:41;;;;;;;44.70;15.77;;;;;;;12.11;100.00;99110.94;4283067;33;20356;-74
2022/11/01 01:25:09;;;;;;;61.20;15.45;;;;;;;12.17;100.00;99064.03;4291220;33;20037;-74
2022/11/01 01:27:35;;;;;;;82.12;17.10;;;;;;;12.51;100.00;99109.63;4294826;33;20094;-74
2022/11/01 01:30:04;;;;;;;46.88;13.77;;;;;;;12.40;100.00;99080.91;4294158;33;20105;-74
2022/11/01 01:32:31;;;;;;;61.10;14.32;;;;;;;12.16;100.00;99073.22;4306901;33;20047;-74
2022/11/01 01:34:57;;;;;;;39.65;16.27;;;;;;;11.91;100.00;99061.09;4295615;33;20402;-74
2022/11/01 01:37:24;;;;;;;35.30;15.15;;;;;;;12.46;100.00;99104.16;4294903;33;20056;-74
2022/11/01 01:39:50;;;;;;;34.40;15.20;;;;;;;12.28;100.00;99103.50;4294386;33;20128;-74
2022/11/01 01:42:26;;;;;;;50.03;14.25;;;;;;;11.94;100.00;99066.00;4293825;33;20112;-74
2022/11/01 01:44:56;;;;;;;38.22;14.27;;;;;;;12.19;100.00;99088.88;4293940;33;20145;-74
2022/11/01 01:47:29;;;;;;;58.20;15.77;;;;;;;12.01;100.00;99059.59;4284492;33;20113;-74
2022/11/01 01:49:59;;;;;;;46.85;14.27;;;;;;;12.09;100.00;99051.00;4285085;33;20428;-74
2022/11/01 01:52:29;;;;;;;29.00;14.02;;;;;;;12.37;100.00;99090.34;4292607;33;20088;-74
2022/11/01 01:54:57;;;;;;;54.13;14.68;;;;;;;12.23;100.00;99073.78;4294573;33;20059;-74
2022/11/01 01:57:23;;;;;;;34.90;13.18;;;;;;;12.10;100.00;99076.94;4294239;33;20053;-74
2022/11/01 01:59:51;;;;;;;45.83;14.87;;;;;;;12.29;100.00;99078.16;4292713;33;20076;-74
2022/11/01 02:02:19;;;;;;;34.58;14.45;;;;;;;12.26;100.00;99069.75;4304175;33;20425;-74
2022/11/01 02:05:11;;;;;;;29.80;13.80;;;;;;;12.05;100.00;99039.13;4307453;33;20056;-74
2022/11/01 02:07:38;;;;;;;24.08;13.50;;;;;;;12.41;100.00;99082.53;4307242;33;20442;-74
2022/11/01 02:10:05;;;;;;;33.55;14.10;;;;;;;12.19;100.00;99040.31;4308273;33;20839;-74
2022/11/01 02:12:34;;;;;;;30.48;13.52;;;;;;;12.24;100.00;99075.41;4309051;33;20049;-74
2022/11/01 02:15:03;;;;;;;70.55;13.07;;;;;;;12.16;100.00;99084.00;4308388;33;20026;-74
2022/11/01 02:17:35;;;;;;;30.33;13.18;;;;;;;12.25;100.00;99071.63;4308177;33;20458;-75
2022/11/01 02:20:34;;;;;;;41.90;13.02;;;;;;;12.34;100.00;99080.88;4309575;33;20418;-75
2022/11/01 02:23:22;;;;;;;37.67;12.60;;;;;;;12.27;100.00;99079.47;4303924;33;20059;-75
2022/11/01 02:26:13;;;;;;;37.50;14.18;;;;;;;12.25;100.00;99077.03;4309188;33;20059;-75
2022/11/01 02:28:56;;;;;;;44.05;12.18;;;;;;;12.13;100.00;99057.53;4305375;33;20062;-74
2022/11/01 02:31:25;;;;;;;25.23;13.10;;;;;;;12.08;100.00;99087.19;4308689;33;20048;-75
2022/11/01 02:34:22;;;;;;;38.83;12.88;;;;;;;12.03;100.00;99081.72;4308809;33;20136;-75
2022/11/01 02:37:01;;;;;;;38.95;13.15;;;;;;;11.81;100.00;99077.22;4290068;33;20055;-76
2022/11/01 02:39:33;;;;;;;72.50;14.52;;;;;;;11.75;100.00;99062.06;4310822;33;20052;-75
2022/11/01 02:42:10;;;;;;;22.15;13.52;;;;;;;11.50;100.00;99022.97;4310245;33;20033;-76
2022/11/01 02:44:41;;;;;;;36.25;13.20;;;;;;;11.85;100.00;99062.13;4310940;33;20084;-76
2022/11/01 02:47:10;;;;;;;51.20;14.90;;;;;;;11.71;100.00;99056.37;4313556;33;20036;-77
2022/11/01 02:49:46;;;;;;;26.62;13.55;;;;;;;11.62;100.00;99042.50;4309927;33;20085;-75
2022/11/01 02:52:23;;;;;;;32.28;14.80;;;;;;;11.70;100.00;99053.91;4307860;33;20194;-75
2022/11/01 02:54:59;;;;;;;34.50;13.60;;;;;;;11.69;100.00;99054.97;4312901;33;20078;-75
2022/11/01 02:57:34;;;;;;;33.58;14.63;;;;;;;11.84;100.00;99057.81;4267413;33;20025;-76
2022/11/01 03:00:19;;;;;;;26.37;14.87;;;;;;;11.70;100.00;99053.91;4271961;33;20076;-74
2022/11/01 03:02:45;;;;;;;25.90;14.57;;;;;;;11.47;100.00;99055.84;4267821;33;20076;-75
2022/11/01 03:05:21;;;;;;;30.70;15.65;;;;;;;11.46;100.00;99032.66;4265310;33;20046;-74
2022/11/01 03:07:54;;;;;;;29.23;15.35;;;;;;;11.73;100.00;99037.22;4268285;33;20198;-75
2022/11/01 03:10:27;;;;;;;30.37;16.48;;;;;;;11.55;100.00;99033.84;4268077;33;20127;-76
2022/11/01 03:13:12;;;;;;;28.12;16.15;;;;;;;11.40;100.00;99006.72;4266420;33;20072;-75
2022/11/01 03:15:51;;;;;;;30.08;18.67;;;;;;;11.43;100.00;99008.91;4278729;33;20073;-75
2022/11/01 03:18:26;;;;;;;28.42;17.27;;;;;;;11.26;100.00;99044.88;4272008;33;20552;-75
2022/11/01 03:21:14;;;;;;;30.67;17.77;;;;;;;11.38;100.00;99019.66;4275135;33;20059;-75
2022/11/01 03:23:49;;;;;;;38.38;18.77;;;;;;;11.41;100.00;99046.09;4266280;33;20056;-75
2022/11/01 03:26:29;;;;;;;30.58;17.35;;;;;;;11.27;100.00;99019.53;4279207;33;20032;-75
2022/11/01 03:29:04;;;;;;;34.30;18.50;;;;;;;11.83;100.00;99026.50;4312595;33;20062;-75
2022/11/01 03:31:34;;;;;;;32.13;17.80;;;;;;;11.96;100.00;99053.06;4328177;33;20044;-76
2022/11/01 03:34:05;;;;;;;33.15;19.23;;;;;;;11.59;100.00;99009.87;4323915;33;20358;-74
2022/11/01 03:36:37;;;;;;;31.58;17.55;;;;;;;11.79;100.00;99036.16;4327373;33;20350;-75
2022/11/01 03:39:22;;;;;;;41.50;18.98;;;;;;;11.55;100.00;99036.53;4323055;33;20066;-75
2022/11/01 03:41:54;;;;;;;43.17;19.17;;;;;;;11.20;100.00;99004.63;4322743;33;20090;-74
2022/11/01 03:44:21;;;;;;;47.35;18.30;;;;;;;11.70;100.00;99048.53;4341829;33;20044;-75
2022/11/01 03:46:48;;;;;;;36.90;18.35;;;;;;;11.98;100.00;99039.31;4338441;33;20048;-75
2022/11/01 03:49:18;;;;;;;37.33;18.87;;;;;;;12.09;100.00;99024.03;4327821;33;20393;-75
2022/11/01 03:51:45;;;;;;;37.40;19.77;;;;;;;12.04;100.00;99043.69;4325801;33;20062;-75
2022/11/01 03:54:11;;;;;;;57.15;19.65;;;;;;;11.81;100.00;99021.38;4327380;33;20052;-75
2022/11/01 03:56:41;;;;;;;44.22;19.40;;;;;;;11.55;100.00;98976.38;4327005;33;20393;-75
2022/11/01 03:59:08;;;;;;;42.78;19.35;;;;;;;11.97;100.00;99033.13;4325740;33;20057;-75
2022/11/01 04:01:35;;;;;;;50.97;22.40;;;;;;;11.67;100.00;98989.69;4327306;33;20074;-75
2022/11/01 04:04:01;;;;;;;45.40;18.48;;;;;;;11.79;100.00;99026.22;4323776;33;20044;-75
2022/11/01 04:06:28;;;;;;;47.30;20.52;;;;;;;11.41;100.00;99002.97;4329644;33;20040;-75
2022/11/01 04:08:54;;;;;;;42.90;20.65;;;;;;;11.87;100.00;99024.94;4302837;33;20055;-76
2022/11/01 04:11:21;;;;;;;43.47;19.15;;;;;;;11.52;100.00;98983.12;4303803;33;20055;-76
2022/11/01 04:13:48;;;;;;;38.83;20.00;;;;;;;11.49;100.00;99021.38;4298199;33;20067;-75
2022/11/01 04:21:44;;;;;;;36.42;19.20;;;;;;;11.27;100.00;98983.69;4295311;33;20063;-75
2022/11/01 04:24:19;;;;;;;38.70;19.15;;;;;;;11.36;100.00;99025.31;4295763;33;20045;-75
2022/11/01 04:26:46;;;;;;;38.45;19.40;;;;;;;10.64;100.00;98981.44;4295810;33;20038;-75
2022/11/01 04:29:13;;;;;;;34.58;21.23;;;;;;;11.24;100.00;99025.44;4299862;33;20399;-74
2022/11/01 04:31:39;;;;;;;30.20;18.35;;;;;;;11.09;100.00;98974.09;4308946;33;20055;-75
2022/11/01 04:34:05;;;;;;;92.47;20.83;;;;;;;11.38;100.00;99015.06;4309942;33;20041;-75
2022/11/01 04:36:32;;;;;;;39.60;19.77;;;;;;;11.58;100.00;99013.62;4309866;33;20041;-75
2022/11/01 04:38:58;;;;;;;33.92;19.75;;;;;;;11.35;100.00;98993.19;4309340;33;20379;-75
2022/11/01 04:41:26;;;;;;;38.38;18.80;;;;;;;11.40;100.00;98996.75;4310484;33;20353;-75
2022/11/01 04:43:55;;;;;;;35.95;18.92;;;;;;;11.41;100.00;98992.19;4312312;33;20083;-75
2022/11/01 04:46:22;;;;;;;33.78;18.83;;;;;;;11.20;100.00;98978.50;4313336;33;20037;-75
2022/11/01 04:48:49;;;;;;;39.38;20.70;;;;;;;11.02;100.00;98941.13;4309117;33;20029;-75
2022/11/01 04:51:15;;;;;;;33.55;17.98;;;;;;;10.85;100.00;98952.00;4309538;33;20394;-74
2022/11/01 04:53:41;;;;;;;43.65;20.65;;;;;;;11.45;100.00;98936.66;4307839;33;20154;-75
2022/11/01 04:56:11;;;;;;;34.28;20.73;;;;;;;10.82;100.00;98918.31;4310069;33;20040;-75
2022/11/01 04:58:37;;;;;;;35.40;20.27;;;;;;;11.19;100.00;98960.72;4308397;33;20088;-76
2022/11/01 05:01:05;;;;;;;31.87;18.83;;;;;;;11.03;100.00;98958.94;4286309;33;20104;-76
2022/11/01 05:03:32;;;;;;;34.08;19.90;;;;;;;10.95;100.00;98913.59;4276052;33;20412;-76
2022/11/01 05:05:59;;;;;;;34.58;18.58;;;;;;;11.39;100.00;98953.88;4278105;33;21964;-75
2022/11/01 05:08:26;;;;;;;35.88;19.20;;;;;;;11.56;100.00;98951.06;4279154;33;20545;-76
2022/11/01 05:10:54;;;;;;;36.10;18.40;;;;;;;11.26;100.00;98947.84;4280481;33;20033;-74
2022/11/01 05:13:21;;;;;;;38.13;18.42;;;;;;;11.35;100.00;98942.00;4282214;33;20440;-75
2022/11/01 05:15:47;;;;;;;30.35;16.98;;;;;;;11.45;100.00;98939.38;4264857;33;20212;-75
2022/11/01 05:18:13;;;;;;;31.20;16.65;;;;;;;11.72;100.00;98942.00;4266239;33;20081;-75
2022/11/01 05:20:40;;;;;;;32.08;17.12;;;;;;;11.45;100.00;98907.84;4266550;33;20363;-75
2022/11/01 05:23:07;;;;;;;32.03;17.98;;;;;;;11.67;100.00;98946.56;4279324;33;20037;-77
2022/11/01 05:25:34;;;;;;;38.33;18.02;;;;;;;11.55;100.00;98912.50;4280350;33;20046;-74
2022/11/01 05:28:04;;;;;;;36.13;17.33;;;;;;;11.77;100.00;98943.91;4278178;33;20034;-74
2022/11/01 05:30:31;;;;;;;32.05;18.02;;;;;;;11.55;100.00;98907.09;4280705;33;20046;-75
2022/11/01 05:32:59;;;;;;;32.22;17.42;;;;;;;11.59;100.00;98918.19;4280333;33;20102;-74
2022/11/01 05:35:27;;;;;;;27.23;17.60;;;;;;;11.42;100.00;98907.53;4274910;33;20037;-75
2022/11/01 05:37:55;;;;;;;35.03;19.45;;;;;;;11.50;100.00;98903.53;4277593;33;20034;-73
2022/11/01 05:40:22;;;;;;;36.30;18.52;;;;;;;11.51;100.00;98951.81;4279405;33;20061;-74
2022/11/01 05:42:49;;;;;;;31.27;17.77;;;;;;;11.48;100.00;98928.06;4278047;33;20075;-74
2022/11/01 05:45:16;;;;;;;24.92;17.62;;;;;;;11.53;100.00;98952.38;4278601;33;20042;-74
2022/11/01 05:47:43;;;;;;;31.60;19.30;;;;;;;11.11;100.00;98907.28;4296821;33;20428;-74
2022/11/01 05:50:12;;;;;;;34.00;18.98;;;;;;;11.62;100.00;98950.81;4306003;33;20086;-74
2022/11/01 05:52:39;;;;;;;35.30;19.02;;;;;;;11.07;100.00;98914.25;4308016;33;20033;-76
2022/11/01 05:55:06;;;;;;;36.13;18.95;;;;;;;11.15;100.00;98962.28;4307598;33;20371;-76
2022/11/01 05:57:33;;;;;;;37.40;19.27;;;;;;;11.30;100.00;98925.78;4307189;33;20427;-77
2022/11/01 06:00:00;;;;;;;33.95;18.45;;;;;;;11.43;100.00;98963.06;4303143;33;20052;-76
2022/11/01 06:02:30;;;;;;;43.10;19.17;;;;;;;11.62;100.00;98960.81;4306255;33;20066;-76
2022/11/01 06:04:59;;;;;;;33.10;16.87;;;;;;;11.44;100.00;98948.53;4292920;33;20038;-77
2022/11/01 06:07:25;;;;;;;40.95;18.52;;;;;;;11.67;100.00;98933.06;4305292;33;20491;-77
2022/11/01 06:09:52;;;;;;;34.83;16.77;;;;;;;12.03;100.00;98966.53;4305166;33;20467;-76
2022/11/01 06:12:22;;;;;;;29.33;16.45;;;;;;;11.73;100.00;98962.50;4306840;33;20657;-75
2022/11/01 06:14:50;;;;;;;23.83;15.05;;;;;;;11.69;100.00;98979.47;4306066;33;20059;-76
2022/11/01 06:17:17;;;;;;;27.90;15.55;;;;;;;11.81;100.00;98947.72;4308960;33;20159;-75
2022/11/01 06:19:43;;;;;;;26.50;16.58;;;;;;;11.43;100.00;98923.44;4307281;33;20185;-74
2022/11/01 06:22:10;;;;;;;34.03;15.77;;;;;;;11.30;100.00;98941.94;4311568;33;20396;-76
2022/11/01 06:24:36;;;;;;;30.42;15.80;;;;;;;11.96;100.00;98977.50;4308930;33;20206;-75
2022/11/01 06:27:03;;;;;;;24.30;15.20;;;;;;;11.64;100.00;98943.28;4311716;33;20199;-75
2022/11/01 06:29:31;;;;;;;26.30;15.23;;;;;;;11.75;100.00;98981.94;4311393;33;20036;-76
2022/11/01 06:32:03;;;;;;;24.25;14.00;;;;;;;12.12;100.00;98985.72;4312249;33;20383;-75
2022/11/01 06:34:32;;;;;;;29.75;15.18;;;;;;;11.98;100.00;98980.78;4312231;33;20056;-75
2022/11/01 06:37:01;;;;;;;27.33;15.63;;;;;;;12.59;100.00;98995.69;4325522;33;20184;-75
2022/11/01 06:39:29;;;;;;;26.20;14.90;;;;;;;12.83;100.00;98995.25;4322155;33;20443;-75
2022/11/01 06:41:58;;;;;;;25.92;13.60;;;;;;;13.07;100.00;99006.38;4324988;33;20109;-74
2022/11/01 06:44:25;;;;;;;25.25;15.50;;;;;;;13.12;100.00;99008.28;4322602;33;20074;-75
2022/11/01 06:46:55;;;;;;;28.62;14.48;;;;;;;13.03;100.00;99002.59;4329045;33;20087;-75
2022/11/01 06:49:25;;;;;;;25.15;14.57;;;;;;;12.82;100.00;98993.59;4329779;33;20041;-74
2022/11/01 06:51:57;;;;;;;27.35;15.43;;;;;;;12.84;100.00;99003.09;4320269;33;20044;-73
2022/11/01 06:54:31;;;;;;;26.42;15.18;;;;;;;13.04;100.00;99013.13;4322292;33;20059;-73
2022/11/01 06:57:04;;;;;;;26.65;14.60;;;;;;;12.93;100.00;99016.88;4330319;33;20037;-74
2022/11/01 06:59:39;;;;;;;31.62;16.15;;;;;;;12.88;100.00;99019.56;4316098;33;20461;-74
2022/11/01 07:02:13;;;;;;;23.02;13.88;;;;;;;12.96;100.00;99032.56;4314939;33;20044;-73
2022/11/01 07:04:43;;;;;;;27.13;14.98;;;;;;;12.48;100.00;98972.41;4314747;33;20041;-74
2022/11/01 07:07:09;;;;;;;24.40;14.90;;;;;;;12.91;100.00;99043.38;4324398;33;20437;-73
2022/11/01 07:09:36;;;;;;;26.05;15.32;;;;;;;12.43;100.00;99007.47;4323721;33;20068;-72
2022/11/01 07:12:02;;;;;;;23.20;15.10;;;;;;;12.84;100.00;99023.88;4326207;33;20066;-74
2022/11/01 07:14:29;;;;;;;39.40;15.98;;;;;;;13.08;100.00;99041.25;4325314;33;20197;-73
2022/11/01 07:16:56;;;;;;;23.98;14.38;;;;;;;13.09;100.00;99037.47;4324286;33;20037;-73
2022/11/01 07:19:22;;;;;;;22.25;14.70;;;;;;;12.69;100.00;98990.31;4324905;33;20040;-74
2022/11/01 07:21:49;;;;;;;29.98;16.73;;;;;;;12.77;100.00;98990.91;4320361;33;20028;-73
2022/11/01 07:24:15;;;;;;;30.42;17.02;;;;;;;12.76;100.00;98973.06;4324392;33;20057;-72
2022/11/01 07:26:42;;;;;;;30.95;17.12;;;;;;;12.88;100.00;98981.75;4307667;33;20033;-72
2022/11/01 07:29:08;;;;;;;35.85;17.77;;;;;;;13.05;100.00;99009.34;4302142;33;20219;-73
2022/11/01 07:31:37;;;;;;;30.77;18.02;;;;;;;13.20;100.00;99010.47;4308057;33;20036;-73
2022/11/01 07:34:04;;;;;;;29.60;16.58;;;;;;;13.04;100.00;98975.28;4296846;33;20074;-73
2022/11/01 07:36:30;;;;;;;30.33;17.30;;;;;;;12.92;100.00;98966.59;4288995;33;20079;-74
2022/11/01 07:38:57;;;;;;;37.72;19.25;;;;;;;13.30;100.00;98999.66;4279162;33;20059;-73
2022/11/01 07:41:23;;;;;;;31.98;18.37;;;;;;;13.21;100.00;98960.72;4277819;33;20047;-72
2022/11/01 07:43:50;;;;;;;34.78;20.08;;;;;;;13.54;100.00;98999.19;4280136;33;20064;-74
2022/11/01 07:46:16;;;;;;;30.55;19.20;;;;;;;13.57;100.00;98993.22;4266506;33;20076;-73
2022/11/01 07:48:43;;;;;;;30.10;17.80;;;;;;;13.38;100.00;98958.59;4267938;33;20507;-74
2022/11/01 07:51:09;;;;;;;31.10;18.33;;;;;;;13.23;100.00;98964.78;4268644;33;20072;-74
2022/11/01 07:53:35;;;;;;;29.48;17.12;;;;;;;12.93;100.00;98970.94;4256368;33;20357;-74
2022/11/01 07:56:02;;;;;;;31.17;16.87;;;;;;;12.91;100.00;98948.78;4266105;33;20398;-74
2022/11/01 07:58:28;;;;;;;34.42;18.85;;;;;;;13.39;100.00;99003.50;4265693;33;20046;-73
2022/11/01 08:00:55;;;;;;;32.28;17.95;;;;;;;13.25;100.00;98994.25;4266775;33;20114;-73
2022/11/01 08:03:22;;;;;;;29.10;17.10;;;;;;;13.50;100.00;98992.66;4266397;33;20030;-73
2022/11/01 08:05:48;;;;;;;31.12;18.15;;;;;;;13.31;100.00;99001.28;4264684;33;20123;-73
2022/11/01 08:08:15;;;;;;;39.75;18.73;;;;;;;13.57;100.00;98993.22;4274625;33;20500;-73
2022/11/01 08:10:42;;;;;;;33.47;17.08;;;;;;;13.15;100.00;98996.94;4281089;33;20045;-73
2022/11/01 08:13:14;;;;;;;31.08;18.62;;;;;;;13.30;100.00;98940.16;4290848;33;20098;-76
2022/11/01 08:15:40;;;;;;;32.33;19.10;;;;;;;13.78;100.00;98967.78;4283345;33;20059;-73
2022/11/01 08:18:07;;;;;;;29.17;17.60;;;;;;;13.68;100.00;98967.78;4314951;33;20044;-75
2022/11/01 08:20:40;;;;;;;31.55;18.17;;;;;;;13.38;100.00;98958.59;4322398;33;20033;-75
2022/11/01 08:23:07;;;;;;;30.12;18.52;;;;;;;13.71;100.00;98923.16;4317082;33;20106;-74
2022/11/01 08:25:34;;;;;;;34.13;19.73;;;;;;;13.51;100.00;98919.37;4315641;33;20048;-74
2022/11/01 08:28:09;;;;;;;46.75;21.37;;;;;;;13.89;100.00;98936.09;4308430;33;20041;-73
2022/11/01 08:30:37;;;;;;;37.90;19.95;;;;;;;13.94;100.00;98948.81;4311103;33;20052;-74
2022/11/01 08:33:04;;;;;;;41.22;21.05;;;;;;;14.03;100.00;98935.56;4310735;33;20056;-72
2022/11/01 08:35:32;;;;;;;36.83;19.87;;;;;;;13.89;100.00;98935.31;4309357;33;20067;-72
2022/11/01 08:37:58;;;;;;;40.03;19.70;;;;;;;13.70;100.00;98903.37;4305976;33;20099;-74
2022/11/01 08:40:29;;;;;;;32.00;20.52;;;;;;;14.41;100.00;98942.19;4306482;33;20172;-74
2022/11/01 08:42:56;;;;;;;36.53;19.08;;;;;;;14.62;100.00;98937.53;4302634;33;20485;-74
2022/11/01 08:45:23;;;;;;;32.95;20.33;;;;;;;14.38;100.00;98942.75;4305669;33;20063;-75
2022/11/01 08:47:56;;;;;;;33.70;19.77;;;;;;;14.68;100.00;98947.25;4305029;33;20205;-72
2022/11/01 08:50:22;;;;;;;38.17;20.27;;;;;;;14.64;100.00;98956.22;4305213;33;20117;-74
2022/11/01 08:52:49;;;;;;;36.78;18.65;;;;;;;14.59;100.00;98953.50;4305466;33;20070;-73
2022/11/01 08:55:15;;;;;;;36.08;20.60;;;;;;;14.63;100.00;98922.06;4309172;33;20408;-73
2022/11/01 08:57:42;;;;;;;44.22;22.80;;;;;;;14.58;100.00;98931.00;4261151;33;20045;-74
2022/11/01 09:00:12;;;;;;;38.47;20.08;;;;;;;14.62;100.00;98936.72;4263580;33;20225;-73
2022/11/01 09:02:38;;;;;;;34.88;19.40;;;;;;;14.87;100.00;98962.84;4266956;33;20448;-73
2022/11/01 09:05:06;;;;;;;37.28;20.48;;;;;;;14.93;100.00;98966.38;4245977;33;20117;-73
2022/11/01 09:07:36;;;;;;;38.17;21.62;;;;;;;14.83;100.00;98927.37;4248549;33;20165;-73
2022/11/01 09:10:03;;;;;;;36.58;20.45;;;;;;;15.16;100.00;98968.41;4262548;33;20088;-73
2022/11/01 09:12:30;;;;;;;40.80;22.30;;;;;;;13.90;100.00;98937.75;4264679;33;20060;-74
2022/11/01 09:14:56;;;;;;;44.10;22.75;;;;;;;13.89;100.00;98978.59;4262266;33;20042;-73
2022/11/01 09:17:22;;;;;;;40.25;22.62;;;;;;;13.03;100.00;98919.59;4262722;33;20071;-74
2022/11/01 09:19:49;;;;;;;45.92;25.48;;;;;;;13.81;100.00;98978.06;4261244;33;20391;-73
2022/11/01 09:22:15;;;;;;;42.05;24.75;;;;;;;13.33;100.00;98966.72;4263606;33;20061;-73
2022/11/01 09:24:41;;;;;;;39.92;25.42;;;;;;;13.38;100.00;98920.72;4250248;33;20713;-73
2022/11/01 09:27:08;;;;;;;42.92;25.23;;;;;;;13.55;100.00;98962.94;4264149;33;20089;-73
2022/11/01 09:29:35;;;;;;;54.28;29.42;;;;;;;13.44;100.00;98919.66;4283352;33;20064;-74
2022/11/01 09:32:02;;;;;;;57.35;27.37;;;;;;;13.62;100.00;98963.47;4291353;33;20061;-75
2022/11/01 09:34:28;;;;;;;56.05;29.58;;;;;;;12.80;100.00;98963.34;4292592;33;20092;-75
2022/11/01 09:36:55;;;;;;;51.40;25.88;;;;;;;12.53;100.00;98958.94;4318269;33;20036;-72
2022/11/01 09:39:21;;;;;;;53.28;26.95;;;;;;;12.82;100.00;98945.78;4307823;33;20032;-72
2022/11/01 09:41:52;;;;;;;61.58;31.37;;;;;;;12.63;100.00;98948.16;4308352;33;20098;-71
2022/11/01 09:44:42;;;;;;;59.60;30.65;;;;;;;12.00;100.00;98913.06;4305343;33;20102;-73
2022/11/01 09:47:19;;;;;;;56.80;29.75;;;;;;;13.05;100.00;98960.72;4294147;33;20037;-72
2022/11/01 09:49:50;;;;;;;53.45;28.98;;;;;;;13.19;100.00;98944.75;4289618;33;20029;-72
2022/11/01 09:52:23;;;;;;;50.65;28.02;;;;;;;12.65;100.00;98929.81;4314815;33;20045;-72
2022/11/01 09:54:50;;;;;;;57.13;29.75;;;;;;;12.86;100.00;98941.47;4319523;33;20126;-73
2022/11/01 09:57:31;;;;;;;58.67;29.63;;;;;;;12.69;100.00;98957.91;4321566;33;20055;-73
2022/11/01 10:00:15;;;;;;;54.72;30.52;;;;;;;13.37;100.00;98962.41;4317142;33;20159;-73
2022/11/01 10:03:03;;;;;;;55.03;29.83;;;;;;;12.93;100.00;98919.59;4319032;33;20069;-73
2022/11/01 10:05:32;;;;;;;60.95;30.83;;;;;;;13.54;100.00;98955.91;4315822;33;20099;-72
2022/11/01 10:08:05;;;;;;;54.40;28.98;;;;;;;12.54;100.00;98960.56;4315703;33;20056;-73
2022/11/01 10:10:38;;;;;;;57.58;28.85;;;;;;;12.81;100.00;98943.34;4324902;33;20419;-73
2022/11/01 10:13:11;;;;;;;53.35;29.35;;;;;;;13.44;100.00;98959.41;4332468;33;20079;-73
2022/11/01 10:15:44;;;;;;;60.65;31.37;;;;;;;13.04;100.00;98963.69;4329474;33;20316;-73
2022/11/01 10:18:18;;;;;;;59.72;30.95;;;;;;;13.60;100.00;98954.81;4337528;33;20032;-72
2022/11/01 10:20:46;;;;;;;53.63;32.47;;;;;;;13.98;100.00;98949.91;4339181;33;20297;-73
2022/11/01 10:23:16;;;;;;;53.53;28.98;;;;;;;13.53;100.00;98921.81;4337804;33;20050;-72
2022/11/01 10:25:47;;;;;;;69.57;35.60;;;;;;;13.89;100.00;98946.12;4338257;33;20382;-72
2022/11/01 10:28:19;;;;;;;54.92;31.75;;;;;;;13.33;100.00;98955.88;4337517;33;20051;-72
2022/11/01 10:30:55;;;;;;;57.42;31.92;;;;;;;13.30;100.00;98942.88;4333792;33;20090;-73
2022/11/01 10:33:27;;;;;;;58.75;31.25;;;;;;;13.65;100.00;98935.88;4326151;33;20115;-72
2022/11/01 10:36:01;;;;;;;;;;;;;;;13.31;100.00;98906.66;4320980;33;20040;-73
2022/11/01 10:38:39;;;;;;;53.72;29.50;;;;;;;13.77;100.00;98935.59;4321332;33;19974;-72
2022/11/01 10:41:13;;;;;;;57.42;32.95;;;;;;;13.94;100.00;98921.75;4322741;33;20062;-73
2022/11/01 10:43:44;;;;;;;63.75;33.50;;;;;;;13.89;100.00;98924.47;4318529;33;20060;-73
2022/11/01 10:46:18;;;;;;;64.37;31.00;;;;;;;13.75;100.00;98919.66;4320182;33;20071;-73
2022/11/01 10:49:39;;;;;;;56.58;32.25;;;;;;;14.06;100.00;98914.16;4316708;33;20496;-73
2022/11/01 10:52:10;;;;;;;63.53;30.88;;;;;;;13.93;100.00;98917.44;4291157;33;20057;-73
2022/11/01 10:54:42;;;;;;;59.13;32.47;;;;;;;13.37;100.00;98913.72;4287665;33;20476;-75
2022/11/01 10:57:40;;;;;;;59.13;30.50;;;;;;;13.90;100.00;98909.88;4287707;33;20099;-75
2022/11/01 11:00:14;;;;;;;60.03;31.20;;;;;;;13.79;100.00;98873.91;4287193;33;20116;-74
2022/11/01 11:02:46;;;;;;;62.13;30.98;;;;;;;14.09;100.00;98899.25;4291816;33;20153;-76
2022/11/01 11:05:17;;;;;;;64.72;31.90;;;;;;;14.26;100.00;98890.78;4280784;33;20049;-74
2022/11/01 11:07:44;;;;;;;58.03;31.40;;;;;;;14.36;100.00;98860.97;4276282;33;20079;-73
2022/11/01 11:10:18;;;;;;;55.80;31.42;;;;;;;14.64;100.00;98896.59;4276854;33;20040;-73
2022/11/01 11:12:48;;;;;;;54.72;31.20;;;;;;;14.32;100.00;98866.09;4266906;33;20071;-73
2022/11/01 11:15:22;;;;;;;57.03;34.33;;;;;;;13.87;100.00;98859.78;4282132;33;20068;-74
2022/11/01 11:18:01;;;;;;;61.15;32.65;;;;;;;13.83;100.00;98887.69;4275732;33;20037;-73
2022/11/01 11:20:29;;;;;;;51.90;31.05;;;;;;;13.90;100.00;98901.75;4276720;33;20105;-72
2022/11/01 11:23:01;;;;;;;59.65;32.05;;;;;;;13.99;100.00;98903.63;4275398;33;20177;-73
2022/11/01 11:25:34;;;;;;;51.97;28.27;;;;;;;14.13;100.00;98892.19;4279267;33;20121;-73
2022/11/01 11:28:01;;;;;;;49.83;29.40;;;;;;;13.86;100.00;98914.19;4273848;33;20030;-74